Time;durP1;ratioP1;P1;durP2;ratioP2;P2;SDS_P1;SDS_P2;PMS_P1;PMS_P2;Temp;Humidity;BMP_temperature;BMP_pressure;BME280_temperature;BME280_humidity;BME280_pressure;Samples;Min_cycle;Max_cycle;Signal;HPM_P1;HPM_P2
2021/05/29 00:02:14;;;;;;;;;;;10.40;99.90;;;;;;8325940;28;19911;-63
2021/05/29 00:06:14;;;;;;;;;;;10.20;99.90;;;;;;8339207;28;19916;-63
2021/05/29 00:10:15;;;;;;;;;;;10.30;99.90;;;;;;8358896;28;20351;-63
2021/05/29 00:14:16;;;;;;;;;;;10.30;99.90;;;;;;8358870;28;19966;-64
2021/05/29 00:18:16;;;;;;;;;;;10.20;99.90;;;;;;8358696;28;19917;-63
2021/05/29 00:22:17;;;;;;;;;;;10.40;99.90;;;;;;8359200;28;19920;-63
2021/05/29 00:26:18;;;;;;;;;;;10.50;99.90;;;;;;8358798;28;20011;-64
2021/05/29 00:30:19;;;;;;;;;;;10.50;99.90;;;;;;8343499;28;19909;-63
2021/05/29 00:34:19;;;;;;;;;;;10.30;99.90;;;;;;8332183;28;19917;-64
2021/05/29 00:38:19;;;;;;;;;;;10.30;99.90;;;;;;8331501;28;19909;-64
2021/05/29 00:42:20;;;;;;;;;;;10.40;99.90;;;;;;8330670;28;19970;-63
2021/05/29 00:46:20;;;;;;;;;;;10.30;99.90;;;;;;8330538;28;20432;-63
2021/05/29 00:50:21;;;;;;;;;;;10.20;99.90;;;;;;8331682;28;19909;-63
2021/05/29 00:54:22;;;;;;;;;;;10.60;99.90;;;;;;8331910;28;19919;-63
2021/05/29 00:58:23;;;;;;;;;;;10.70;99.90;;;;;;8332072;28;20267;-63
2021/05/29 01:02:24;;;;;;;;;;;10.50;99.90;;;;;;8331528;28;19916;-63
2021/05/29 01:06:24;;;;;;;;;;;10.30;99.90;;;;;;8363279;28;19909;-64
2021/05/29 01:10:25;;;;;;;;;;;10.30;99.90;;;;;;8363883;28;19908;-64
2021/05/29 01:14:25;;;;;;;;;;;10.20;99.90;;;;;;8363857;28;19920;-64
2021/05/29 01:18:26;;;;;;;;;;;10.30;99.90;;;;;;8363684;28;20410;-64
2021/05/29 01:22:45;;;;;;;;;;;10.20;99.90;;;;;;8363751;28;19967;-63
2021/05/29 01:26:47;;;;;;;;;;;10.10;99.90;;;;;;8364004;28;20013;-64
2021/05/29 01:30:49;;;;;;;;;;;10.30;99.90;;;;;;8345465;28;20331;-64
2021/05/29 01:34:50;;;;;;;;;;;10.10;99.90;;;;;;8344247;28;19971;-64
2021/05/29 01:38:51;;;;;;;;;;;10.30;99.90;;;;;;8330488;28;19921;-64
2021/05/29 01:42:52;;;;;;;;;;;10.10;99.90;;;;;;8329871;28;19910;-64
2021/05/29 01:46:53;;;;;;;;;;;9.90;99.90;;;;;;8330168;28;19909;-63
2021/05/29 01:50:53;;;;;;;;;;;10.00;99.90;;;;;;8330010;28;19909;-64
2021/05/29 01:54:53;;;;;;;;;;;10.10;99.90;;;;;;8312145;28;19913;-63
2021/05/29 01:58:54;;;;;;;;;;;10.10;99.90;;;;;;8329608;28;19909;-64
2021/05/29 02:02:55;;;;;;;;;;;10.10;99.90;;;;;;8315176;28;19971;-64
2021/05/29 02:06:56;;;;;;;;;;;9.90;99.90;;;;;;8362213;28;19945;-63
2021/05/29 02:10:56;;;;;;;;;;;9.90;99.90;;;;;;8361866;28;19915;-63
2021/05/29 02:14:57;;;;;;;;;;;9.90;99.90;;;;;;8361899;28;19924;-64
2021/05/29 02:18:57;;;;;;;;;;;10.00;99.90;;;;;;8319757;23;19925;-64
2021/05/29 02:22:58;;;;;;;;;;;9.90;99.90;;;;;;8328980;28;20002;-63
2021/05/29 02:26:58;;;;;;;;;;;9.90;99.90;;;;;;8328780;28;19909;-63
2021/05/29 02:30:58;;;;;;;;;;;10.40;99.90;;;;;;8328262;28;20358;-63
2021/05/29 02:34:59;;;;;;;;;;;10.30;99.90;;;;;;8328142;28;20341;-63
2021/05/29 02:38:59;;;;;;;;;;;10.00;99.90;;;;;;8327856;28;20030;-64
2021/05/29 02:43:00;;;;;;;;;;;9.90;99.90;;;;;;8327565;28;19910;-64
2021/05/29 02:47:01;;;;;;;;;;;9.60;99.90;;;;;;8327897;28;19916;-63
2021/05/29 02:51:02;;;;;;;;;;;9.60;99.90;;;;;;8327199;28;19909;-63
2021/05/29 02:55:03;;;;;;;;;;;9.50;99.90;;;;;;8326050;28;19913;-64
2021/05/29 02:59:04;;;;;;;;;;;9.60;99.90;;;;;;8327310;28;19909;-64
2021/05/29 03:03:06;;;;;;;;;;;9.70;99.90;;;;;;8327186;28;19925;-63
2021/05/29 03:07:07;;;;;;;;;;;9.60;99.90;;;;;;8308433;28;19919;-64
2021/05/29 03:11:09;;;;;;;;;;;9.60;99.90;;;;;;8325818;28;19909;-63
2021/05/29 03:15:11;;;;;;;;;;;9.60;99.90;;;;;;8327065;28;20435;-64
2021/05/29 03:19:11;;;;;;;;;;;9.60;99.90;;;;;;8326782;28;20020;-64
2021/05/29 03:23:12;;;;;;;;;;;9.60;99.90;;;;;;8326766;28;19916;-64
2021/05/29 03:27:17;;;;;;;;;;;9.60;99.90;;;;;;8325724;28;19909;-64
2021/05/29 03:31:18;;;;;;;;;;;9.80;99.90;;;;;;8309015;28;19913;-64
2021/05/29 03:35:19;;;;;;;;;;;9.80;99.90;;;;;;8326438;28;19968;-64
2021/05/29 03:39:19;;;;;;;;;;;9.90;99.90;;;;;;8326560;28;19947;-64
2021/05/29 03:43:19;;;;;;;;;;;9.80;99.90;;;;;;8326864;28;19913;-64
2021/05/29 03:47:20;;;;;;;;;;;9.70;99.90;;;;;;8326469;28;19972;-64
2021/05/29 03:51:20;;;;;;;;;;;9.80;99.90;;;;;;8326340;28;19971;-64
2021/05/29 03:55:21;;;;;;;;;;;9.80;99.90;;;;;;8326304;28;20015;-64
2021/05/29 03:59:22;;;;;;;;;;;9.60;99.90;;;;;;8326213;28;19952;-64
2021/05/29 04:03:22;;;;;;;;;;;9.70;99.90;;;;;;8326118;28;19909;-64
2021/05/29 04:07:23;;;;;;;;;;;9.70;99.90;;;;;;8325844;28;19909;-64
2021/05/29 04:11:23;;;;;;;;;;;9.70;99.90;;;;;;8325812;28;20374;-64
2021/05/29 04:15:25;;;;;;;;;;;9.80;99.90;;;;;;8326337;28;19920;-63
2021/05/29 04:19:25;;;;;;;;;;;9.80;99.90;;;;;;8325668;28;19917;-64
2021/05/29 04:23:26;;;;;;;;;;;9.80;99.90;;;;;;8325933;28;19974;-64
2021/05/29 04:27:26;;;;;;;;;;;9.80;99.90;;;;;;8294692;28;19917;-64
2021/05/29 04:31:27;;;;;;;;;;;9.80;99.90;;;;;;8292782;28;20335;-64
2021/05/29 04:35:27;;;;;;;;;;;9.90;99.90;;;;;;8316810;28;20059;-64
2021/05/29 04:39:28;;;;;;;;;;;9.90;99.90;;;;;;8324023;28;19909;-64
2021/05/29 04:43:28;;;;;;;;;;;10.00;99.90;;;;;;8323838;28;19916;-63
2021/05/29 04:47:28;;;;;;;;;;;10.10;99.90;;;;;;8304813;28;19913;-64
2021/05/29 04:51:29;;;;;;;;;;;10.10;99.90;;;;;;8302840;28;19914;-64
2021/05/29 04:55:29;;;;;;;;;;;10.20;99.90;;;;;;8297842;28;19953;-63
2021/05/29 04:59:30;;;;;;;;;;;10.20;99.90;;;;;;8295744;28;19913;-63
2021/05/29 05:03:31;;;;;;;;;;;10.30;99.90;;;;;;8311040;28;19921;-63
2021/05/29 05:07:31;;;;;;;;;;;10.50;99.90;;;;;;8306924;28;19915;-62
2021/05/29 05:11:34;;;;;;;;;;;10.60;99.90;;;;;;8321426;28;19914;-63
2021/05/29 05:15:35;;;;;;;;;;;10.90;99.90;;;;;;8324509;28;19913;-62
2021/05/29 05:19:35;;;;;;;;;;;10.90;99.90;;;;;;8313261;28;19921;-64
2021/05/29 05:23:36;;;;;;;;;;;11.00;99.90;;;;;;8305556;28;19913;-62
2021/05/29 05:27:37;;;;;;;;;;;11.10;99.90;;;;;;8324742;28;19913;-64
2021/05/29 05:31:39;;;;;;;;;;;11.40;99.90;;;;;;8327080;28;20371;-64
2021/05/29 05:35:40;;;;;;;;;;;11.60;99.90;;;;;;8327147;28;19944;-64
2021/05/29 05:39:41;;;;;;;;;;;12.20;99.90;;;;;;8316774;28;19965;-63
2021/05/29 05:43:41;;;;;;;;;;;12.40;99.90;;;;;;8296859;28;19917;-64
2021/05/29 05:47:42;;;;;;;;;;;12.70;99.90;;;;;;8305114;28;20007;-64
2021/05/29 05:51:42;;;;;;;;;;;12.80;99.90;;;;;;8322540;28;20380;-69
2021/05/29 05:55:43;;;;;;;;;;;12.80;99.90;;;;;;8329453;28;20291;-69
2021/05/29 05:59:43;;;;;;;;;;;13.20;99.90;;;;;;8321879;28;20454;-64
2021/05/29 06:03:44;;;;;;;;;;;13.40;99.90;;;;;;8303633;28;19913;-63
2021/05/29 06:07:44;;;;;;;;;;;13.60;99.90;;;;;;8309742;28;19931;-64
2021/05/29 06:11:45;;;;;;;;;;;13.80;99.90;;;;;;8291357;28;19917;-63
2021/05/29 06:20:08;;;;;;;;;;;13.90;99.90;;;;;;8295623;28;20373;-63
2021/05/29 06:24:09;;;;;;;;;;;13.70;99.90;;;;;;8295431;28;20328;-63
2021/05/29 06:28:09;;;;;;;;;;;13.70;99.90;;;;;;8295347;28;19913;-63
2021/05/29 06:32:13;;;;;;;;;;;14.00;99.90;;;;;;8295366;28;19910;-64
2021/05/29 06:36:13;;;;;;;;;;;14.40;99.90;;;;;;8321378;28;19987;-64
2021/05/29 06:40:14;;;;;;;;;;;14.80;99.90;;;;;;8309853;28;19974;-64
2021/05/29 06:44:14;;;;;;;;;;;15.00;99.90;;;;;;8327562;28;19909;-64
2021/05/29 06:48:16;;;;;;;;;;;14.90;99.90;;;;;;8287351;28;19913;-64
2021/05/29 06:52:19;;;;;;;;;;;15.20;99.90;;;;;;8322419;28;20074;-63
2021/05/29 07:00:39;;;;;;;;;;;15.40;99.90;;;;;;8318206;28;19916;-63
2021/05/29 07:04:39;;;;;;;;;;;15.60;99.90;;;;;;8326196;28;20007;-63
2021/05/29 07:08:40;;;;;;;;;;;15.90;99.90;;;;;;8313481;28;19913;-63
2021/05/29 07:12:40;;;;;;;;;;;16.10;99.90;;;;;;8309628;28;19918;-63
2021/05/29 07:16:43;;;;;;;;;;;15.80;99.90;;;;;;8315962;28;19959;-63
2021/05/29 07:20:43;;;;;;;;;;;15.10;99.90;;;;;;8307270;28;19913;-63
2021/05/29 07:24:44;;;;;;;;;;;15.30;99.90;;;;;;8323703;28;19909;-63
2021/05/29 07:28:44;;;;;;;;;;;15.00;99.90;;;;;;8306292;28;19913;-63
2021/05/29 07:32:45;;;;;;;;;;;15.00;99.90;;;;;;8317695;28;19921;-63
2021/05/29 07:36:45;;;;;;;;;;;15.20;99.90;;;;;;8297829;28;19913;-63
2021/05/29 07:40:46;;;;;;;;;;;15.30;99.90;;;;;;8308930;28;20398;-63
2021/05/29 07:44:47;;;;;;;;;;;15.90;99.90;;;;;;8309335;28;19999;-63
2021/05/29 07:48:50;;;;;;;;;;;15.90;99.90;;;;;;8291095;28;19909;-64
2021/05/29 07:52:51;;;;;;;;;;;16.60;99.90;;;;;;8281954;28;19929;-64
2021/05/29 07:56:52;;;;;;;;;;;17.30;99.90;;;;;;8323720;28;19913;-64
2021/05/29 08:00:52;;;;;;;;;;;17.60;99.90;;;;;;8323157;28;20406;-63
2021/05/29 08:04:52;;;;;;;;;;;17.10;99.90;;;;;;8323742;28;19982;-64
2021/05/29 08:08:53;;;;;;;;;;;16.80;99.90;;;;;;8323636;28;19909;-64
2021/05/29 08:12:54;;;;;;;;;;;17.60;99.90;;;;;;8306880;28;20362;-64
2021/05/29 08:16:54;;;;;;;;;;;18.40;99.90;;;;;;8324222;28;19924;-63
2021/05/29 08:20:55;;;;;;;;;;;18.70;99.90;;;;;;8345683;22;19932;-64
2021/05/29 08:24:55;;;;;;;;;;;18.90;99.90;;;;;;8324254;28;20311;-64
2021/05/29 08:28:56;;;;;;;;;;;18.80;99.90;;;;;;8324433;28;20295;-64
2021/05/29 08:32:56;;;;;;;;;;;19.10;99.90;;;;;;8324459;28;20403;-62
2021/05/29 08:36:57;;;;;;;;;;;18.80;99.90;;;;;;8318163;28;19936;-62
2021/05/29 08:40:57;;;;;;;;;;;19.10;99.90;;;;;;8348271;28;19913;-63
2021/05/29 08:44:58;;;;;;;;;;;19.50;99.90;;;;;;8329503;28;20010;-62
2021/05/29 08:48:59;;;;;;;;;;;19.60;94.10;;;;;;8308586;28;19913;-63
2021/05/29 08:52:59;;;;;;;;;;;19.30;95.40;;;;;;8328118;28;19967;-62
2021/05/29 08:57:00;;;;;;;;;;;18.90;95.90;;;;;;8334066;28;20962;-62
2021/05/29 09:01:02;;;;;;;;;;;18.90;97.90;;;;;;8331549;28;19917;-63
2021/05/29 09:05:10;;;;;;;;;;;19.00;97.80;;;;;;8336323;28;19909;-63
2021/05/29 09:09:12;;;;;;;;;;;19.40;95.90;;;;;;8312425;28;19919;-62
2021/05/29 09:13:14;;;;;;;;;;;19.20;91.90;;;;;;8338746;28;20398;-63
2021/05/29 09:17:17;;;;;;;;;;;19.20;95.90;;;;;;8329371;28;19916;-62
2021/05/29 09:21:31;;;;;;;;;;;19.00;95.70;;;;;;8331181;28;19924;-63
2021/05/29 09:25:33;;;;;;;;;;;19.30;95.00;;;;;;8329324;28;19913;-62
2021/05/29 09:29:33;;;;;;;;;;;19.50;92.80;;;;;;8334047;28;19909;-63
2021/05/29 09:33:35;;;;;;;;;;;19.70;94.20;;;;;;8328174;28;19971;-63
2021/05/29 09:37:36;;;;;;;;;;;19.80;94.50;;;;;;8356745;28;19913;-63
2021/05/29 09:41:41;;;;;;;;;;;19.10;91.40;;;;;;8352609;28;19913;-62
2021/05/29 09:45:41;;;;;;;;;;;19.50;94.20;;;;;;8337923;28;19912;-63
2021/05/29 09:49:52;;;;;;;;;;;19.30;91.30;;;;;;8354978;28;20018;-63
2021/05/29 09:53:53;;;;;;;;;;;19.00;94.70;;;;;;8351899;28;19924;-62
2021/05/29 09:57:58;;;;;;;;;;;19.40;90.20;;;;;;8361407;28;19913;-63
2021/05/29 10:02:00;;;;;;;;;;;19.70;89.80;;;;;;8330696;28;20003;-62
2021/05/29 10:06:08;;;;;;;;;;;19.90;91.00;;;;;;8333254;28;19913;-64
2021/05/29 10:10:09;;;;;;;;;;;19.90;89.30;;;;;;8328535;28;19909;-62
2021/05/29 10:14:10;;;;;;;;;;;20.10;89.20;;;;;;8328243;28;19921;-63
2021/05/29 10:18:10;;;;;;;;;;;19.90;81.70;;;;;;8328056;28;20386;-62
2021/05/29 10:22:12;;;;;;;;;;;19.50;83.50;;;;;;8328113;28;19940;-62
2021/05/29 10:26:14;;;;;;;;;;;19.70;93.40;;;;;;8306595;28;19979;-63
2021/05/29 10:30:15;;;;;;;;;;;19.80;86.00;;;;;;8322912;28;19917;-63
2021/05/29 10:34:15;;;;;;;;;;;20.30;89.00;;;;;;8313789;28;19978;-63
2021/05/29 10:38:16;;;;;;;;;;;20.80;82.10;;;;;;8295474;28;19971;-64
2021/05/29 10:42:35;;;;;;;;;;;21.50;86.10;;;;;;8299319;28;20470;-63
2021/05/29 10:46:35;;;;;;;;;;;22.20;81.40;;;;;;8315801;28;19920;-63
2021/05/29 10:55:13;;;;;;;;;;;21.40;77.00;;;;;;8325873;28;20283;-63
2021/05/29 10:59:15;;;;;;;;;;;20.90;74.10;;;;;;8330352;28;19920;-63
2021/05/29 11:03:16;;;;;;;;;;;20.40;71.50;;;;;;8340163;28;20390;-63
2021/05/29 11:07:16;;;;;;;;;;;21.00;83.80;;;;;;8342250;28;19913;-64
2021/05/29 11:11:35;;;;;;;;;;;21.30;78.40;;;;;;8336670;28;19924;-63
2021/05/29 11:15:54;;;;;;;;;;;22.20;79.50;;;;;;8329735;28;20023;-62
2021/05/29 11:20:05;;;;;;;;;;;22.90;72.80;;;;;;8322721;28;20365;-63
2021/05/29 11:24:18;;;;;;;;;;;22.60;66.00;;;;;;8343867;28;19913;-62
2021/05/29 11:28:22;;;;;;;;;;;22.70;58.70;;;;;;8333059;28;19920;-63
2021/05/29 11:36:44;;;;;;;;;;;22.30;64.30;;;;;;8326864;28;19917;-64
2021/05/29 11:40:58;;;;;;;;;;;25.70;61.30;;;;;;8336730;28;19917;-63
2021/05/29 11:45:14;;;;;;;;;;;28.90;46.90;;;;;;8346012;28;19913;-64
2021/05/29 11:49:15;;;;;;;;;;;30.20;45.20;;;;;;8328317;28;19917;-64
2021/05/29 11:53:23;;;;;;;;;;;28.80;43.80;;;;;;8323284;28;20006;-62
2021/05/29 11:57:23;;;;;;;;;;;26.80;46.00;;;;;;8325087;28;19916;-63
2021/05/29 12:01:28;;;;;;;;;;;26.90;49.70;;;;;;8331040;28;19913;-65
2021/05/29 12:05:38;;;;;;;;;;;27.00;50.20;;;;;;8314603;28;19912;-62
2021/05/29 12:09:42;;;;;;;;;;;26.80;48.40;;;;;;8339384;28;19921;-62
2021/05/29 12:13:53;;;;;;;;;;;26.80;47.60;;;;;;8323136;28;19921;-63
2021/05/29 12:18:00;;;;;;;;;;;26.20;48.10;;;;;;8337097;28;19913;-63
2021/05/29 12:22:04;;;;;;;;;;;24.90;49.60;;;;;;8350856;28;19940;-63
2021/05/29 12:26:04;;;;;;;;;;;24.90;52.90;;;;;;8310612;28;19959;-63
2021/05/29 12:30:07;;;;;;;;;;;26.50;50.30;;;;;;8328991;28;20502;-63
2021/05/29 12:34:07;;;;;;;;;;;27.30;49.10;;;;;;8320935;28;20003;-62
2021/05/29 12:38:09;;;;;;;;;;;28.10;46.40;;;;;;8329160;28;19951;-63
2021/05/29 12:42:19;;;;;;;;;;;28.10;43.20;;;;;;8330893;28;19913;-62
2021/05/29 12:46:26;;;;;;;;;;;29.20;41.80;;;;;;8334062;28;19943;-63
2021/05/29 12:50:28;;;;;;;;;;;29.90;41.40;;;;;;8311890;28;20433;-64
2021/05/29 12:54:45;;;;;;;;;;;29.10;42.70;;;;;;8326401;28;19921;-62
2021/05/29 12:59:03;;;;;;;;;;;27.50;44.40;;;;;;8338407;28;19920;-63
2021/05/29 13:07:43;;;;;;;;;;;28.70;45.80;;;;;;8328330;28;19920;-63
2021/05/29 13:11:45;;;;;;;;;;;34.00;35.00;;;;;;8326972;28;19913;-63
2021/05/29 13:15:58;;;;;;;;;;;37.10;31.50;;;;;;8337222;28;19917;-64
2021/05/29 13:20:06;;;;;;;;;;;37.30;30.50;;;;;;8309252;28;19928;-64
2021/05/29 13:24:06;;;;;;;;;;;35.80;31.00;;;;;;8344927;28;20011;-63
2021/05/29 13:28:08;;;;;;;;;;;29.20;38.80;;;;;;8332676;28;20004;-63
2021/05/29 13:32:10;;;;;;;;;;;29.80;40.50;;;;;;8330048;28;19959;-63
2021/05/29 13:36:11;;;;;;;;;;;29.60;39.30;;;;;;8329190;28;19920;-64
2021/05/29 13:40:14;;;;;;;;;;;27.30;44.00;;;;;;8342471;28;19913;-63
2021/05/29 13:44:14;;;;;;;;;;;26.40;46.60;;;;;;8337545;28;19918;-64
2021/05/29 13:48:16;;;;;;;;;;;25.80;46.90;;;;;;8356478;28;19913;-64
2021/05/29 13:52:16;;;;;;;;;;;25.30;48.40;;;;;;8348529;28;19913;-62
2021/05/29 13:56:17;;;;;;;;;;;24.80;49.00;;;;;;8343165;28;20374;-63
2021/05/29 14:00:19;;;;;;;;;;;25.10;49.90;;;;;;8344128;28;19913;-63
2021/05/29 14:04:21;;;;;;;;;;;31.30;41.60;;;;;;8314798;28;19914;-64
2021/05/29 14:08:21;;;;;;;;;;;35.10;36.20;;;;;;8338908;28;19925;-62
2021/05/29 14:12:22;;;;;;;;;;;36.90;28.80;;;;;;8338472;28;20298;-63
2021/05/29 14:16:23;;;;;;;;;;;35.60;32.70;;;;;;8359985;28;19917;-62
2021/05/29 14:20:23;;;;;;;;;;;37.30;30.00;;;;;;8381999;22;19925;-66
2021/05/29 14:24:24;;;;;;;;;;;34.70;31.60;;;;;;8360924;28;19909;-65
2021/05/29 14:28:24;;;;;;;;;;;30.80;36.40;;;;;;8360551;28;19956;-65
2021/05/29 14:32:25;;;;;;;;;;;28.30;41.10;;;;;;8358302;28;20063;-65
2021/05/29 14:36:26;;;;;;;;;;;27.50;42.50;;;;;;8357392;28;19917;-65
2021/05/29 14:40:26;;;;;;;;;;;28.90;38.10;;;;;;8327766;28;19917;-66
2021/05/29 14:44:27;;;;;;;;;;;28.40;40.00;;;;;;8341583;28;19912;-65
2021/05/29 14:48:27;;;;;;;;;;;27.60;41.80;;;;;;8360389;28;20008;-65
2021/05/29 14:52:28;;;;;;;;;;;26.90;42.50;;;;;;8360067;28;19909;-65
2021/05/29 14:56:29;;;;;;;;;;;26.00;42.70;;;;;;8360450;28;20256;-65
2021/05/29 15:00:30;;;;;;;;;;;25.30;44.90;;;;;;8359966;28;20525;-65
2021/05/29 15:04:38;;;;;;;;;;;24.60;45.10;;;;;;8340374;28;19915;-65
2021/05/29 15:08:39;;;;;;;;;;;24.80;47.30;;;;;;8352176;28;20379;-65
2021/05/29 15:12:39;;;;;;;;;;;25.40;45.50;;;;;;8359578;28;19967;-65
2021/05/29 15:16:39;;;;;;;;;;;26.30;45.20;;;;;;8345745;28;20290;-65
2021/05/29 15:25:11;;;;;;;;;;;30.20;39.70;;;;;;8340566;28;19923;-66
2021/05/29 15:29:12;;;;;;;;;;;33.40;36.30;;;;;;8341008;28;19935;-65
2021/05/29 15:33:12;;;;;;;;;;;31.30;36.10;;;;;;8359617;28;19912;-65
2021/05/29 15:37:13;;;;;;;;;;;29.40;40.00;;;;;;8359904;28;19916;-65
2021/05/29 15:41:13;;;;;;;;;;;31.70;38.50;;;;;;8341220;28;19970;-66
2021/05/29 15:45:14;;;;;;;;;;;35.50;33.10;;;;;;8358764;28;20383;-66
2021/05/29 15:49:14;;;;;;;;;;;36.80;31.20;;;;;;8359486;28;19909;-66
2021/05/29 15:53:15;;;;;;;;;;;37.80;30.10;;;;;;8335652;28;19917;-66
2021/05/29 15:57:16;;;;;;;;;;;38.90;29.10;;;;;;8343444;28;19925;-66
2021/05/29 16:01:16;;;;;;;;;;;39.40;27.30;;;;;;8341891;28;19924;-66
2021/05/29 16:05:17;;;;;;;;;;;38.00;28.00;;;;;;8339697;28;19917;-66
2021/05/29 16:09:17;;;;;;;;;;;37.80;27.40;;;;;;8357697;28;19913;-66
2021/05/29 16:13:18;;;;;;;;;;;38.50;27.30;;;;;;8354433;28;19924;-66
2021/05/29 16:17:22;;;;;;;;;;;38.30;27.10;;;;;;8355087;28;19913;-66
2021/05/29 16:21:22;;;;;;;;;;;38.30;27.00;;;;;;8355251;28;19962;-65
2021/05/29 16:25:22;;;;;;;;;;;38.90;27.10;;;;;;8354884;28;19916;-65
2021/05/29 16:29:23;;;;;;;;;;;39.30;26.70;;;;;;8324553;28;19913;-66
2021/05/29 16:33:23;;;;;;;;;;;39.90;26.30;;;;;;8332848;28;19917;-66
2021/05/29 16:37:24;;;;;;;;;;;37.30;27.40;;;;;;8358170;28;19909;-65
2021/05/29 16:41:24;;;;;;;;;;;34.30;30.00;;;;;;8357457;28;19909;-65
2021/05/29 16:45:25;;;;;;;;;;;34.20;31.40;;;;;;8358875;28;19952;-66
2021/05/29 16:49:25;;;;;;;;;;;36.10;30.10;;;;;;8357967;28;19916;-65
2021/05/29 16:53:26;;;;;;;;;;;36.80;28.30;;;;;;8357255;28;20229;-66
2021/05/29 16:57:26;;;;;;;;;;;37.50;28.30;;;;;;8354929;28;19939;-66
2021/05/29 17:01:27;;;;;;;;;;;38.50;27.60;;;;;;8350394;28;19923;-66
2021/05/29 17:05:27;;;;;;;;;;;39.30;26.80;;;;;;8355871;28;19912;-66
2021/05/29 17:09:28;;;;;;;;;;;38.00;27.00;;;;;;8356816;28;20325;-66
2021/05/29 17:13:28;;;;;;;;;;;36.50;29.00;;;;;;8361716;28;19939;-66
2021/05/29 17:17:29;;;;;;;;;;;37.00;28.40;;;;;;8346351;28;19909;-66
2021/05/29 17:21:29;;;;;;;;;;;36.50;28.50;;;;;;8363261;28;19943;-65
2021/05/29 17:25:30;;;;;;;;;;;34.90;29.40;;;;;;8352867;28;19913;-65
2021/05/29 17:29:30;;;;;;;;;;;33.40;30.70;;;;;;8319026;28;20012;-65
2021/05/29 17:33:31;;;;;;;;;;;31.10;31.90;;;;;;8321056;28;20260;-65
2021/05/29 17:37:31;;;;;;;;;;;28.30;36.60;;;;;;8345391;28;19909;-65
2021/05/29 17:41:32;;;;;;;;;;;25.90;40.40;;;;;;8362950;28;19916;-65
2021/05/29 17:45:32;;;;;;;;;;;24.90;40.90;;;;;;8363139;28;19913;-65
2021/05/29 17:49:33;;;;;;;;;;;24.30;42.60;;;;;;8359570;28;19912;-64
2021/05/29 17:53:33;;;;;;;;;;;23.60;41.40;;;;;;8359267;28;19936;-65
2021/05/29 17:57:44;;;;;;;;;;;23.40;45.30;;;;;;8357535;28;20019;-65
2021/05/29 18:01:45;;;;;;;;;;;22.70;45.80;;;;;;8342981;28;20565;-64
2021/05/29 18:05:45;;;;;;;;;;;22.30;47.00;;;;;;8339531;28;19968;-64
2021/05/29 18:09:46;;;;;;;;;;;22.90;47.70;;;;;;8329704;28;20031;-64
2021/05/29 18:13:47;;;;;;;;;;;23.20;47.90;;;;;;8341148;28;20014;-65
2021/05/29 18:17:47;;;;;;;;;;;21.90;50.20;;;;;;8337980;28;19925;-64
2021/05/29 18:21:48;;;;;;;;;;;20.60;53.30;;;;;;8340724;28;20600;-64
2021/05/29 18:25:48;;;;;;;;;;;19.70;55.00;;;;;;8330752;28;20623;-64
2021/05/29 18:29:49;;;;;;;;;;;18.90;57.20;;;;;;8353302;28;19921;-64
2021/05/29 18:33:49;;;;;;;;;;;18.20;58.50;;;;;;8346649;28;19931;-65
2021/05/29 18:41:52;;;;;;;;;;;17.30;65.20;;;;;;8345817;28;20005;-63
2021/05/29 18:45:52;;;;;;;;;;;16.80;69.30;;;;;;8353729;28;19917;-64
2021/05/29 18:49:53;;;;;;;;;;;16.20;73.10;;;;;;8356032;28;20358;-64
2021/05/29 18:53:54;;;;;;;;;;;15.90;71.70;;;;;;8356147;28;20359;-63
2021/05/29 18:58:04;;;;;;;;;;;15.60;73.10;;;;;;8355268;28;19924;-65
2021/05/29 19:06:29;;;;;;;;;;;14.70;77.90;;;;;;8352135;28;19923;-64
2021/05/29 19:10:30;;;;;;;;;;;14.50;79.30;;;;;;8336673;28;19917;-64
2021/05/29 19:14:31;;;;;;;;;;;14.20;81.50;;;;;;8338365;28;20777;-64
2021/05/29 19:18:32;;;;;;;;;;;14.00;85.50;;;;;;8339488;28;19971;-63
2021/05/29 19:22:43;;;;;;;;;;;13.80;89.90;;;;;;8321367;28;19925;-64
2021/05/29 19:30:45;;;;;;;;;;;13.40;94.50;;;;;;8348178;28;20003;-64
2021/05/29 19:39:19;;;;;;;;;;;13.10;97.80;;;;;;8343477;28;20294;-64
2021/05/29 19:43:22;;;;;;;;;;;13.00;99.20;;;;;;8321458;28;19913;-64
2021/05/29 20:13:33;;;;;;;;;;;12.30;99.90;;;;;;8341420;28;20319;-63
2021/05/29 20:26:14;;;;;;;;;;;12.10;99.90;;;;;;8340740;28;19916;-64
2021/05/29 20:30:15;;;;;;;;;;;11.70;99.90;;;;;;8336970;28;20015;-64
2021/05/29 20:38:16;;;;;;;;;;;11.30;99.90;;;;;;8323576;28;20358;-64
2021/05/29 20:42:16;;;;;;;;;;;11.50;99.90;;;;;;8324268;28;19913;-64
2021/05/29 20:46:17;;;;;;;;;;;11.40;99.90;;;;;;8307135;28;19956;-64
2021/05/29 20:50:17;;;;;;;;;;;11.20;99.90;;;;;;8330337;28;19910;-64
2021/05/29 20:54:18;;;;;;;;;;;11.00;99.90;;;;;;8313343;28;20282;-64
2021/05/29 20:58:18;;;;;;;;;;;11.10;99.90;;;;;;8328781;28;19917;-64
2021/05/29 21:02:19;;;;;;;;;;;10.90;99.90;;;;;;8330415;28;19967;-64
2021/05/29 21:06:19;;;;;;;;;;;10.60;99.90;;;;;;8281672;28;19910;-64
2021/05/29 21:10:20;;;;;;;;;;;10.30;99.90;;;;;;8297471;28;19933;-64
2021/05/29 21:14:24;;;;;;;;;;;10.40;99.90;;;;;;8298013;28;20008;-64
2021/05/29 21:22:44;;;;;;;;;;;10.20;99.90;;;;;;8298255;28;19924;-64
2021/05/29 21:26:45;;;;;;;;;;;10.20;99.90;;;;;;8297938;28;19909;-64
2021/05/29 21:30:45;;;;;;;;;;;10.10;99.90;;;;;;8279417;28;19914;-64
2021/05/29 21:34:46;;;;;;;;;;;10.00;99.90;;;;;;8297491;28;19924;-64
2021/05/29 21:38:46;;;;;;;;;;;9.90;99.90;;;;;;8297109;28;19991;-64
2021/05/29 21:42:48;;;;;;;;;;;9.90;99.90;;;;;;8297300;28;20000;-64
2021/05/29 21:51:07;;;;;;;;;;;9.50;99.90;;;;;;8297613;28;20060;-64
2021/05/29 21:55:08;;;;;;;;;;;9.50;99.90;;;;;;8296793;28;19914;-64
2021/05/29 21:59:09;;;;;;;;;;;9.40;99.90;;;;;;8296025;28;19932;-64
2021/05/29 22:03:10;;;;;;;;;;;9.20;99.90;;;;;;8278878;28;20516;-64
2021/05/29 22:07:11;;;;;;;;;;;9.00;99.90;;;;;;8297082;28;19917;-64
2021/05/29 22:19:40;;;;;;;;;;;8.90;99.90;;;;;;8296396;28;19971;-64
2021/05/29 22:32:20;;;;;;;;;;;8.90;99.90;;;;;;8295701;28;19916;-65
2021/05/29 22:36:21;;;;;;;;;;;8.70;99.90;;;;;;8295666;28;19913;-65
2021/05/29 22:40:21;;;;;;;;;;;8.60;99.90;;;;;;8277771;28;19917;-66
2021/05/29 22:44:22;;;;;;;;;;;8.50;99.90;;;;;;8295299;28;20487;-65
2021/05/29 22:48:22;;;;;;;;;;;8.30;99.90;;;;;;8295119;28;20375;-65
2021/05/29 22:52:23;;;;;;;;;;;8.20;99.90;;;;;;8295058;28;19941;-65
2021/05/29 22:56:23;;;;;;;;;;;8.40;99.90;;;;;;8277638;28;20012;-66
2021/05/29 23:00:24;;;;;;;;;;;8.20;99.90;;;;;;8294949;28;20008;-66
2021/05/29 23:04:24;;;;;;;;;;;8.10;99.90;;;;;;8294647;28;19909;-65
2021/05/29 23:08:25;;;;;;;;;;;8.20;99.90;;;;;;8294496;28;19910;-65
2021/05/29 23:12:25;;;;;;;;;;;8.10;99.90;;;;;;8293341;28;20299;-65
2021/05/29 23:16:26;;;;;;;;;;;7.80;99.90;;;;;;8294162;28;19920;-65
2021/05/29 23:20:26;;;;;;;;;;;7.80;99.90;;;;;;8293780;28;19971;-65
2021/05/29 23:24:27;;;;;;;;;;;7.60;99.90;;;;;;8276012;28;19913;-66
2021/05/29 23:28:27;;;;;;;;;;;7.70;99.90;;;;;;8293226;28;19913;-67
2021/05/29 23:32:28;;;;;;;;;;;7.80;99.90;;;;;;8293058;28;19963;-67
2021/05/29 23:36:28;;;;;;;;;;;7.90;99.90;;;;;;8274789;28;19913;-67
2021/05/29 23:40:31;;;;;;;;;;;7.80;99.90;;;;;;8293325;28;19910;-67
2021/05/29 23:44:32;;;;;;;;;;;7.70;99.90;;;;;;8275815;28;19914;-67
2021/05/29 23:48:32;;;;;;;;;;;7.50;99.90;;;;;;8293305;28;19980;-67
2021/05/29 23:52:33;;;;;;;;;;;7.40;99.90;;;;;;8293163;28;20295;-67
2021/05/29 23:56:33;;;;;;;;;;;7.40;99.90;;;;;;8275499;28;19925;-67
